Time;durP1;ratioP1;P1;durP2;ratioP2;P2;SDS_P1;SDS_P2;PMS_P1;PMS_P2;Temp;Humidity;BMP_temperature;BMP_pressure;BME280_temperature;BME280_humidity;BME280_pressure;Samples;Min_cycle;Max_cycle;Signal;HPM_P1;HPM_P2
2022/06/11 00:01:57;;;;;;;;;;;;;;;;;;;;;
2022/06/11 00:04:38;;;;;;;6.80;2.80;;;20.90;1.00;;;;;;6304726;22;20473;-84
2022/06/11 00:07:35;;;;;;;;;;;;;;;;;;;;;
2022/06/11 00:10:11;;;;;;;;;;;;;;;;;;;;;
2022/06/11 00:12:37;;;;;;;5.63;2.70;;;20.90;1.00;;;;;;6312217;22;20512;-83
2022/06/11 00:15:17;;;;;;;;;;;;;;;;;;;;;
2022/06/11 00:17:53;;;;;;;;;;;;;;;;;;;;;
2022/06/11 00:20:39;;;;;;;6.10;2.70;;;20.80;1.00;;;;;;6312612;22;20388;-82
2022/06/11 00:23:42;;;;;;;;;;;;;;;;;;;;;
2022/06/11 00:26:39;;;;;;;;;;;;;;;;;;;;;
2022/06/11 00:29:18;;;;;;;;;;;;;;;;;;;;;
2022/06/11 00:35:03;;;;;;;;;;;;;;;;;;;;;
2022/06/11 00:37:55;;;;;;;10.43;3.40;;;20.40;1.00;;;;;;6311799;22;20846;-83
2022/06/11 00:40:44;;;;;;;4.43;2.73;;;20.30;99.90;;;;;;6284238;22;20780;-83
2022/06/11 00:43:43;;;;;;;9.67;3.30;;;20.20;99.90;;;;;;6284659;22;20377;-83
2022/06/11 00:46:34;;;;;;;7.13;2.80;;;20.20;99.90;;;;;;6305490;22;20387;-84
2022/06/11 00:49:33;;;;;;;6.90;3.37;;;20.20;99.90;;;;;;6284857;22;20452;-83
2022/06/11 00:52:40;;;;;;;;;;;;;;;;;;;;;
2022/06/11 00:55:36;;;;;;;4.53;3.20;;;20.10;1.00;;;;;;6301869;22;20402;-83
2022/06/11 00:58:30;;;;;;;;;;;;;;;;;;;;;
2022/06/11 01:01:13;;;;;;;;;;;;;;;;;;;;;
2022/06/11 01:03:58;;;;;;;;;;;;;;;;;;;;;
2022/06/11 01:06:32;;;;;;;6.57;2.80;;;20.10;1.00;;;;;;6312195;22;20996;-82
2022/06/11 01:12:50;;;;;;;;;;;;;;;;;;;;;
2022/06/11 01:16:08;;;;;;;;;;;;;;;;;;;;;
2022/06/11 01:19:08;;;;;;;;;;;;;;;;;;;;;
2022/06/11 01:22:16;;;;;;;;;;;;;;;;;;;;;
2022/06/11 01:25:01;;;;;;;5.77;3.20;;;20.00;96.70;;;;;;6271044;22;20425;-82
2022/06/11 01:27:46;;;;;;;5.33;3.10;;;19.90;99.90;;;;;;6300009;22;20781;-83
2022/06/11 01:30:33;;;;;;;6.73;3.30;;;19.90;99.90;;;;;;6300354;22;20420;-83
2022/06/11 01:33:21;;;;;;;4.73;3.57;;;19.80;99.90;;;;;;6328085;22;20458;-84
2022/06/11 01:35:55;;;;;;;6.27;3.50;;;19.80;99.90;;;;;;6328311;22;20351;-83
2022/06/11 01:38:28;;;;;;;10.03;3.30;;;19.70;99.90;;;;;;6300413;22;20381;-83
2022/06/11 01:41:15;;;;;;;6.77;3.57;;;19.60;99.90;;;;;;6301343;22;20383;-83
2022/06/11 01:43:44;;;;;;;7.13;3.60;;;19.50;1.00;;;;;;6328575;22;20466;-83
2022/06/11 01:46:28;;;;;;;9.23;3.70;;;19.40;1.00;;;;;;6329018;22;20371;-86
2022/06/11 01:49:04;;;;;;;6.77;3.60;;;19.40;1.00;;;;;;6301374;22;20412;-83
2022/06/11 01:51:48;;;;;;;4.87;3.20;;;19.30;99.90;;;;;;6301089;22;20389;-83
2022/06/11 01:54:49;;;;;;;6.50;3.67;;;19.20;99.90;;;;;;6301673;22;20441;-83
2022/06/11 01:57:43;;;;;;;8.90;3.57;;;19.10;1.00;;;;;;6327684;22;20349;-84
2022/06/11 02:00:14;;;;;;;11.07;3.67;;;19.10;1.00;;;;;;6300770;22;20463;-83
2022/06/11 02:03:03;;;;;;;9.93;4.03;;;19.00;99.90;;;;;;6301643;22;20369;-82
2022/06/11 02:06:00;;;;;;;7.23;4.13;;;18.90;1.00;;;;;;6302317;22;20446;-83
2022/06/11 02:08:39;;;;;;;5.50;3.97;;;18.90;99.90;;;;;;6328636;22;20381;-83
2022/06/11 02:11:29;;;;;;;4.40;3.80;;;18.80;99.90;;;;;;6329004;22;20352;-84
2022/06/11 02:14:09;;;;;;;9.00;4.43;;;18.70;1.00;;;;;;6302707;22;20433;-84
2022/06/11 02:17:18;;;;;;;9.90;4.30;;;18.70;31.20;;;;;;6329886;22;20355;-84
2022/06/11 02:19:52;;;;;;;7.63;3.60;;;18.60;99.90;;;;;;6246472;22;20388;-82
2022/06/11 02:22:25;;;;;;;6.60;4.33;;;18.60;99.90;;;;;;6329593;22;20379;-83
2022/06/11 02:25:07;;;;;;;11.50;4.27;;;18.50;99.90;;;;;;6302020;22;20409;-85
2022/06/11 02:27:35;;;;;;;5.50;4.20;;;18.50;1.00;;;;;;6328260;22;20383;-82
2022/06/11 02:30:04;;;;;;;7.70;4.33;;;18.50;1.00;;;;;;6299723;22;20423;-83
2022/06/11 02:32:32;;;;;;;9.90;3.80;;;18.50;1.00;;;;;;6299095;22;20422;-84
2022/06/11 02:35:01;;;;;;;7.10;4.53;;;18.50;1.00;;;;;;6330577;22;20446;-83
2022/06/11 02:37:37;;;;;;;8.60;4.00;;;18.40;1.00;;;;;;6303903;22;20383;-83
2022/06/11 02:40:16;;;;;;;4.07;3.67;;;18.40;1.00;;;;;;6304128;22;20373;-84
2022/06/11 02:42:46;;;;;;;8.33;3.93;;;18.40;87.20;;;;;;6330199;22;20377;-84
2022/06/11 02:45:16;;;;;;;6.50;3.83;;;18.40;99.90;;;;;;6330969;22;20395;-84
2022/06/11 02:47:47;;;;;;;7.80;4.10;;;18.40;99.90;;;;;;6303896;22;20380;-84
2022/06/11 02:50:22;;;;;;;6.93;4.17;;;18.40;99.90;;;;;;6304296;22;20412;-85
2022/06/11 02:52:47;;;;;;;8.57;4.60;;;18.40;99.90;;;;;;6301980;22;20449;-84
2022/06/11 02:55:14;;;;;;;7.70;3.90;;;18.40;99.90;;;;;;6328108;22;20396;-84
2022/06/11 02:57:39;;;;;;;6.20;4.30;;;18.40;99.90;;;;;;6300808;22;20180;-83
2022/06/11 03:00:09;;;;;;;9.00;4.40;;;18.50;99.90;;;;;;6301412;22;20382;-86
2022/06/11 03:02:36;;;;;;;6.60;4.03;;;18.50;99.90;;;;;;6328470;22;20148;-84
2022/06/11 03:05:02;;;;;;;8.67;3.80;;;18.50;99.90;;;;;;6328440;22;20394;-84
2022/06/11 03:07:27;;;;;;;8.23;4.57;;;18.50;99.90;;;;;;6301289;22;20378;-85
2022/06/11 03:09:53;;;;;;;6.13;3.77;;;18.50;99.90;;;;;;6301396;22;20536;-84
2022/06/11 03:12:19;;;;;;;4.97;4.53;;;18.50;82.10;;;;;;6328720;22;20213;-84
2022/06/11 03:14:45;;;;;;;9.30;4.57;;;18.50;49.50;;;;;;6327543;22;20194;-83
2022/06/11 03:17:13;;;;;;;5.60;4.40;;;18.50;28.10;;;;;;6299789;22;20439;-83
2022/06/11 03:19:39;;;;;;;15.17;4.83;;;18.50;29.10;;;;;;6300957;22;20693;-84
2022/06/11 03:22:07;;;;;;;5.90;3.83;;;18.50;42.30;;;;;;6330085;22;20366;-83
2022/06/11 03:24:32;;;;;;;10.10;4.67;;;18.50;49.90;;;;;;6302357;22;20416;-84
2022/06/11 03:26:58;;;;;;;8.97;5.00;;;18.50;99.90;;;;;;6330019;22;20375;-85
2022/06/11 03:29:26;;;;;;;5.83;4.20;;;18.40;99.10;;;;;;6331039;22;20170;-83
2022/06/11 03:31:52;;;;;;;11.73;4.53;;;18.40;99.90;;;;;;6329583;22;20156;-84
2022/06/11 03:34:18;;;;;;;7.80;3.70;;;18.40;93.20;;;;;;6328991;22;20383;-83
2022/06/11 03:37:02;;;;;;;;;;;;;;;;;;;;;
2022/06/11 03:39:30;;;;;;;7.70;4.20;;;18.40;99.90;;;;;;6330415;22;20354;-83
2022/06/11 03:41:56;;;;;;;8.50;4.10;;;18.40;99.90;;;;;;6302469;22;20380;-84
2022/06/11 03:44:24;;;;;;;10.73;4.37;;;18.30;99.90;;;;;;6301189;22;20429;-84
2022/06/11 03:46:51;;;;;;;5.87;3.73;;;18.30;99.90;;;;;;6329582;22;20551;-85
2022/06/11 03:49:17;;;;;;;8.33;3.90;;;18.30;99.90;;;;;;6329125;22;20378;-84
2022/06/11 03:51:43;;;;;;;6.73;4.17;;;18.30;99.90;;;;;;6301480;22;20387;-86
2022/06/11 03:54:10;;;;;;;10.97;4.33;;;18.30;99.90;;;;;;6328824;22;20390;-83
2022/06/11 03:56:37;;;;;;;6.73;3.93;;;18.30;99.90;;;;;;6300761;22;20388;-85
2022/06/11 03:59:03;;;;;;;6.40;4.30;;;18.30;99.90;;;;;;6301585;22;20374;-84
2022/06/11 04:01:29;;;;;;;6.07;4.20;;;18.30;99.90;;;;;;6301327;22;20380;-84
2022/06/11 04:04:01;;;;;;;8.60;3.63;;;18.40;99.90;;;;;;6328674;22;20391;-85
2022/06/11 04:06:38;;;;;;;8.27;4.30;;;18.50;92.60;;;;;;6328307;22;20238;-84
2022/06/11 04:09:09;;;;;;;11.10;5.13;;;18.60;1.00;;;;;;6301822;22;20385;-85
2022/06/11 04:11:35;;;;;;;9.60;3.60;;;18.70;1.00;;;;;;6328750;22;20362;-84
2022/06/11 04:14:00;;;;;;;7.30;4.17;;;18.90;99.90;;;;;;6301336;22;20441;-83
2022/06/11 04:16:31;;;;;;;10.80;4.50;;;19.00;1.00;;;;;;6301086;22;20377;-85
2022/06/11 04:19:03;;;;;;;5.30;3.70;;;19.10;1.00;;;;;;6302023;22;20151;-84
2022/06/11 04:21:33;;;;;;;6.30;4.23;;;19.20;99.90;;;;;;6301792;22;20378;-84
2022/06/11 04:24:08;;;;;;;9.47;5.57;;;19.20;1.00;;;;;;6302600;22;20439;-83
2022/06/11 04:27:17;;;;;;;5.20;4.20;;;19.30;1.00;;;;;;6301852;22;20389;-83
2022/06/11 04:29:51;;;;;;;5.20;3.70;;;19.30;1.00;;;;;;6328470;22;20489;-86
2022/06/11 04:32:27;;;;;;;;;;;;;;;;;;;;;
2022/06/11 04:35:09;;;;;;;;;;;;;;;;;;;;;
2022/06/11 04:37:34;;;;;;;8.40;3.93;;;19.60;33.30;;;;;;6328277;22;20354;-84
2022/06/11 04:40:02;;;;;;;7.33;4.00;;;19.70;1.00;;;;;;6301468;22;20392;-83
2022/06/11 04:42:43;;;;;;;;;;;;;;;;;;;;;
2022/06/11 04:45:16;;;;;;;6.70;4.13;;;20.00;99.90;;;;;;6328588;22;20879;-83
2022/06/11 04:47:42;;;;;;;4.87;3.30;;;20.10;99.90;;;;;;6302023;22;20564;-84
2022/06/11 04:50:08;;;;;;;9.60;3.10;;;20.20;33.10;;;;;;6301376;22;20392;-83
2022/06/11 04:52:44;;;;;;;5.77;3.20;;;20.30;1.00;;;;;;6300885;22;20427;-83
2022/06/11 04:55:20;;;;;;;;;;;;;;;;;;;;;
2022/06/11 04:57:49;;;;;;;6.67;3.53;;;20.40;1.00;;;;;;6327369;22;20343;-83
2022/06/11 05:00:24;;;;;;;5.37;3.27;;;20.40;1.00;;;;;;6328169;22;20704;-86
2022/06/11 05:02:52;;;;;;;8.13;3.27;;;20.40;1.00;;;;;;6328993;22;20783;-84
2022/06/11 05:05:18;;;;;;;10.10;3.60;;;20.40;99.90;;;;;;6300871;22;20497;-86
2022/06/11 05:07:45;;;;;;;5.00;3.40;;;20.40;99.90;;;;;;6327703;22;20453;-85
2022/06/11 05:10:28;;;;;;;;;;;;;;;;;;;;;
2022/06/11 05:13:01;;;;;;;7.40;3.33;;;20.40;99.90;;;;;;6323556;22;20421;-85
2022/06/11 05:15:29;;;;;;;3.63;2.83;;;20.50;99.90;;;;;;6327855;22;20417;-85
2022/06/11 05:17:57;;;;;;;7.67;4.10;;;20.50;99.90;;;;;;6301258;22;20445;-84
2022/06/11 05:20:25;;;;;;;8.23;3.37;;;20.40;99.90;;;;;;6327978;22;20376;-84
2022/06/11 05:23:09;;;;;;;;;;;;;;;;;;;;;
2022/06/11 05:25:57;;;;;;;4.90;3.40;;;20.50;99.90;;;;;;6328320;22;20357;-84
2022/06/11 05:28:30;;;;;;;9.13;3.73;;;20.60;99.90;;;;;;6327382;22;20369;-85
2022/06/11 05:31:06;;;;;;;5.40;3.40;;;20.70;99.90;;;;;;6302069;22;20412;-84
2022/06/11 05:33:33;;;;;;;4.40;2.93;;;20.80;57.40;;;;;;6300916;22;20427;-84
2022/06/11 05:36:08;;;;;;;7.47;3.90;;;20.80;1.00;;;;;;6292553;22;20458;-85
2022/06/11 05:41:30;;;;;;;;;;;;;;;;;;;;;
2022/06/11 05:44:07;;;;;;;6.30;3.13;;;21.30;1.00;;;;;;6317779;22;20416;-84
2022/06/11 05:46:46;;;;;;;6.80;3.20;;;21.50;1.00;;;;;;6287600;22;20397;-85
2022/06/11 05:49:49;;;;;;;4.90;3.00;;;21.70;1.00;;;;;;6315885;22;20382;-85
2022/06/11 05:52:30;;;;;;;4.53;2.93;;;21.90;99.90;;;;;;6295265;22;20421;-83
2022/06/11 05:55:19;;;;;;;3.03;2.40;;;22.10;99.90;;;;;;6290361;22;20425;-84
2022/06/11 05:57:56;;;;;;;4.20;3.30;;;22.20;99.90;;;;;;6288004;22;20481;-84
2022/06/11 06:00:24;;;;;;;6.20;3.50;;;22.30;99.90;;;;;;6290555;22;20384;-84
2022/06/11 06:02:56;;;;;;;5.33;3.80;;;22.20;99.90;;;;;;6289833;22;20433;-85
2022/06/11 06:05:41;;;;;;;6.63;3.20;;;22.20;99.70;;;;;;6290040;22;20479;-84
2022/06/11 06:08:08;;;;;;;7.50;3.80;;;22.10;99.90;;;;;;6288942;22;20468;-84
2022/06/11 06:10:37;;;;;;;6.23;4.13;;;22.10;99.20;;;;;;6289574;22;20386;-84
2022/06/11 06:13:45;;;;;;;4.23;3.60;;;22.00;99.90;;;;;;6317885;22;20457;-85
2022/06/11 06:15:51;;;;;;;5.40;3.80;;;22.00;99.90;;;;;;6313178;22;20742;-84
2022/06/11 06:18:17;;;;;;;10.17;3.90;;;22.10;99.90;;;;;;6267389;22;20450;-85
2022/06/11 06:20:42;;;;;;;7.50;4.00;;;22.10;99.90;;;;;;6221201;23;20883;-85
2022/06/11 06:23:08;;;;;;;7.10;4.13;;;22.20;99.90;;;;;;6220717;23;20588;-85
2022/06/11 06:25:33;;;;;;;5.60;3.90;;;22.20;99.90;;;;;;6222052;23;20207;-85
2022/06/11 06:27:59;;;;;;;7.07;4.20;;;22.20;99.90;;;;;;6235010;23;20678;-86
2022/06/11 06:30:24;;;;;;;5.73;4.10;;;22.30;99.90;;;;;;6249678;23;20654;-85
2022/06/11 06:32:50;;;;;;;8.47;4.20;;;22.30;97.10;;;;;;6250408;22;20185;-85
2022/06/11 06:35:16;;;;;;;7.37;4.10;;;22.40;92.30;;;;;;6249880;23;20208;-85
2022/06/11 06:37:41;;;;;;;10.50;5.30;;;22.50;71.00;;;;;;6252002;22;20166;-85
2022/06/11 06:40:07;;;;;;;9.07;4.50;;;22.60;43.40;;;;;;6250881;22;20147;-86
2022/06/11 06:42:33;;;;;;;8.20;4.10;;;22.70;27.60;;;;;;6250588;22;20156;-85
2022/06/11 06:44:58;;;;;;;7.43;4.53;;;22.90;11.70;;;;;;6250740;22;20863;-86
2022/06/11 06:47:24;;;;;;;8.90;4.70;;;23.00;1.00;;;;;;6249569;22;20230;-85
2022/06/11 06:49:49;;;;;;;8.93;5.10;;;23.00;1.00;;;;;;6251597;22;20586;-85
2022/06/11 06:52:15;;;;;;;10.93;4.90;;;23.00;1.00;;;;;;6250965;22;20202;-85
2022/06/11 06:54:40;;;;;;;7.90;4.53;;;23.00;1.00;;;;;;6249578;23;20151;-85
2022/06/11 06:57:06;;;;;;;5.63;3.93;;;23.00;1.00;;;;;;6249260;22;20246;-86
2022/06/11 06:59:32;;;;;;;4.13;3.50;;;23.00;1.00;;;;;;6250617;23;20158;-85
2022/06/11 07:01:58;;;;;;;18.90;3.80;;;23.00;1.00;;;;;;6250370;22;20535;-85
2022/06/11 07:04:23;;;;;;;4.20;2.73;;;23.10;1.00;;;;;;6251449;22;20406;-83
2022/06/11 07:06:49;;;;;;;6.43;3.13;;;23.30;1.00;;;;;;6249484;23;20217;-83
2022/06/11 07:09:14;;;;;;;7.10;3.40;;;23.40;1.00;;;;;;6251725;22;20175;-85
2022/06/11 07:11:40;;;;;;;7.30;2.90;;;23.60;1.00;;;;;;6249054;23;20158;-85
2022/06/11 07:14:05;;;;;;;5.73;3.50;;;23.70;1.00;;;;;;6251425;22;20179;-84
2022/06/11 07:16:41;;;;;;;6.13;3.10;;;24.00;1.00;;;;;;6249655;23;20296;-84
2022/06/11 07:19:15;;;;;;;5.13;2.40;;;24.40;1.00;;;;;;6276735;22;20413;-84
2022/06/11 07:21:45;;;;;;;4.60;2.43;;;24.90;99.90;;;;;;6282313;22;20367;-85
2022/06/11 07:24:15;;;;;;;3.80;2.77;;;26.60;99.90;;;;;;6254293;22;20413;-87
2022/06/11 07:26:49;;;;;;;2.90;2.23;;;34.30;99.90;;;;;;6277094;22;20416;-84
2022/06/11 07:29:27;;;;;;;7.00;3.03;;;40.60;99.90;;;;;;6276273;22;20391;-85
2022/06/11 07:31:58;;;;;;;3.80;2.20;;;45.60;99.90;;;;;;6275555;22;20358;-85
2022/06/11 07:34:26;;;;;;;3.80;2.13;;;48.80;99.90;;;;;;6276069;22;20360;-86
2022/06/11 07:36:51;;;;;;;5.00;2.03;;;51.00;99.90;;;;;;6248143;22;20391;-85
2022/06/11 07:39:17;;;;;;;4.05;1.70;;;52.20;99.90;;;;;;6275648;22;20171;-85
2022/06/11 07:41:45;;;;;;;6.05;2.25;;;53.50;99.90;;;;;;6247777;22;20160;-86
2022/06/11 07:44:10;;;;;;;2.92;1.55;;;53.90;99.90;;;;;;6275694;22;20617;-85
2022/06/11 07:46:36;;;;;;;2.93;1.33;;;53.10;99.90;;;;;;6275259;22;20152;-85
2022/06/11 07:49:02;;;;;;;3.50;1.70;;;51.10;99.90;;;;;;6248551;22;20183;-85
2022/06/11 07:51:27;;;;;;;4.22;1.67;;;52.50;99.90;;;;;;6275822;22;20207;-86
2022/06/11 07:53:53;;;;;;;2.83;2.00;;;53.80;99.90;;;;;;6248657;22;20201;-87
2022/06/11 07:56:21;;;;;;;4.03;1.73;;;55.50;99.90;;;;;;6276165;22;20163;-85
2022/06/11 07:58:49;;;;;;;4.33;1.97;;;52.80;99.90;;;;;;6274754;22;20241;-87
2022/06/11 08:01:15;;;;;;;3.20;1.70;;;49.00;99.90;;;;;;6274928;22;20377;-85
2022/06/11 08:03:40;;;;;;;3.03;1.60;;;49.10;99.90;;;;;;6276359;22;20444;-85
2022/06/11 08:06:08;;;;;;;4.27;1.80;;;45.90;99.90;;;;;;6279276;22;20814;-84
2022/06/11 08:08:34;;;;;;;4.90;2.10;;;42.70;99.90;;;;;;6279365;22;20168;-85
2022/06/11 08:11:03;;;;;;;4.20;2.00;;;40.80;99.90;;;;;;6251698;22;20375;-84
2022/06/11 08:13:29;;;;;;;4.83;1.80;;;40.10;99.90;;;;;;6279527;22;20410;-85
2022/06/11 08:15:55;;;;;;;4.00;1.90;;;40.20;99.90;;;;;;6280605;22;20414;-84
2022/06/11 08:18:22;;;;;;;4.30;2.23;;;39.40;99.90;;;;;;6278416;22;20753;-84
2022/06/11 08:20:49;;;;;;;2.90;1.80;;;38.50;99.90;;;;;;6280038;22;20447;-84
2022/06/11 08:23:15;;;;;;;3.90;1.87;;;37.70;99.90;;;;;;6280309;22;20904;-84
2022/06/11 08:25:41;;;;;;;3.27;1.53;;;36.80;99.90;;;;;;6280880;22;20367;-85
2022/06/11 08:28:07;;;;;;;3.77;2.20;;;36.00;99.90;;;;;;6280563;22;20207;-84
2022/06/11 08:30:34;;;;;;;3.33;2.20;;;34.80;99.90;;;;;;6281359;22;20484;-84
2022/06/11 08:33:00;;;;;;;5.23;2.30;;;33.70;99.90;;;;;;6255624;22;20391;-85
2022/06/11 08:35:28;;;;;;;6.70;2.40;;;32.70;99.90;;;;;;6256278;22;20382;-87
2022/06/11 08:37:54;;;;;;;5.00;2.60;;;32.30;99.90;;;;;;6283217;22;20607;-85
2022/06/11 08:40:27;;;;;;;5.43;3.10;;;32.70;99.90;;;;;;6255237;22;20387;-85
2022/06/11 08:43:00;;;;;;;5.33;3.00;;;33.50;99.90;;;;;;6281847;22;20419;-85
2022/06/11 08:45:36;;;;;;;4.20;2.90;;;33.20;99.90;;;;;;6281459;22;20447;-87
2022/06/11 08:48:10;;;;;;;3.70;2.90;;;32.80;99.90;;;;;;6253104;22;20403;-86
2022/06/11 08:50:40;;;;;;;5.73;3.43;;;32.70;99.90;;;;;;6279521;22;20712;-86
2022/06/11 08:53:06;;;;;;;4.00;3.30;;;33.10;99.90;;;;;;6278800;22;20403;-85
2022/06/11 08:55:36;;;;;;;6.40;3.73;;;34.60;99.90;;;;;;6277830;22;20379;-84
2022/06/11 08:58:17;;;;;;;5.20;2.90;;;35.00;99.90;;;;;;6250136;22;20407;-85
2022/06/11 09:01:04;;;;;;;5.70;3.07;;;35.10;99.90;;;;;;6277358;22;20359;-84
2022/06/11 09:04:05;;;;;;;8.93;3.60;;;34.50;99.90;;;;;;6249894;22;20419;-85
2022/06/11 09:06:50;;;;;;;4.50;2.97;;;36.20;99.90;;;;;;6123752;23;20443;-85
2022/06/11 09:09:30;;;;;;;4.33;3.60;;;38.80;99.90;;;;;;6265625;22;20410;-84
2022/06/11 09:12:16;;;;;;;6.33;4.00;;;37.60;99.90;;;;;;6277892;22;20362;-84
2022/06/11 09:15:03;;;;;;;9.53;3.97;;;36.20;99.90;;;;;;6278716;22;20413;-84
2022/06/11 09:17:53;;;;;;;3.93;3.63;;;35.10;99.90;;;;;;6279615;22;20403;-84
2022/06/11 09:20:19;;;;;;;5.83;4.93;;;34.10;99.90;;;;;;6279972;22;20379;-85
2022/06/11 09:23:08;;;;;;;5.70;5.10;;;33.40;99.90;;;;;;6280219;22;20756;-85
2022/06/11 09:25:47;;;;;;;5.43;4.93;;;33.00;99.90;;;;;;6280432;22;20455;-85
2022/06/11 09:28:22;;;;;;;6.67;4.90;;;33.00;99.90;;;;;;6254671;22;20464;-85
2022/06/11 09:30:57;;;;;;;7.17;4.00;;;33.90;99.90;;;;;;6280955;22;20848;-86
2022/06/11 09:33:31;;;;;;;9.20;4.80;;;34.80;99.90;;;;;;6279889;22;20358;-85
2022/06/11 09:36:06;;;;;;;6.80;4.93;;;34.80;99.90;;;;;;6280352;22;20356;-85
2022/06/11 09:39:01;;;;;;;6.87;5.17;;;35.40;99.90;;;;;;6279053;22;20509;-85
2022/06/11 09:41:54;;;;;;;8.83;5.00;;;36.70;99.90;;;;;;6278922;22;20809;-85
2022/06/11 09:44:52;;;;;;;6.70;4.73;;;36.40;99.90;;;;;;6278939;22;20372;-84
2022/06/11 09:47:46;;;;;;;6.30;5.17;;;35.90;99.90;;;;;;6279199;22;20387;-85
2022/06/11 09:50:31;;;;;;;8.57;5.33;;;35.90;99.90;;;;;;6279010;22;20358;-86
2022/06/11 09:53:12;;;;;;;6.03;4.27;;;36.90;99.90;;;;;;6277987;22;20359;-86
2022/06/11 09:55:57;;;;;;;7.90;5.47;;;38.20;99.90;;;;;;6276996;22;20367;-85
2022/06/11 09:58:41;;;;;;;4.43;4.03;;;38.90;99.90;;;;;;6276970;22;20413;-86
2022/06/11 10:01:23;;;;;;;5.43;4.90;;;39.80;99.90;;;;;;6250771;22;20382;-85
2022/06/11 10:04:04;;;;;;;5.00;4.50;;;40.00;99.90;;;;;;6276644;22;20910;-86
2022/06/11 10:06:45;;;;;;;5.47;4.33;;;40.50;99.90;;;;;;6277245;22;20348;-86
2022/06/11 10:09:22;;;;;;;5.73;4.43;;;40.90;99.90;;;;;;6281788;22;20776;-85
2022/06/11 10:11:50;;;;;;;4.67;3.70;;;40.30;99.90;;;;;;6282571;22;20408;-86
2022/06/11 10:14:36;;;;;;;5.57;3.93;;;40.00;99.90;;;;;;6278782;22;20382;-86
2022/06/11 10:17:26;;;;;;;4.43;3.30;;;40.20;99.90;;;;;;6248783;22;20387;-85
2022/06/11 10:19:57;;;;;;;3.63;3.13;;;39.30;99.90;;;;;;6276498;22;20383;-85
2022/06/11 10:22:36;;;;;;;8.33;4.17;;;38.90;99.90;;;;;;6249130;22;20928;-88
2022/06/11 10:25:27;;;;;;;4.03;2.90;;;37.80;99.90;;;;;;6277950;22;20485;-86
2022/06/11 10:28:19;;;;;;;5.30;3.80;;;38.30;99.90;;;;;;6277138;22;20966;-85
2022/06/11 10:30:51;;;;;;;5.63;3.20;;;37.70;99.90;;;;;;6206750;22;20394;-85
2022/06/11 10:33:24;;;;;;;6.43;3.63;;;37.40;99.90;;;;;;6278009;22;20351;-85
2022/06/11 10:36:02;;;;;;;5.93;3.30;;;38.30;99.90;;;;;;6249261;22;20379;-85
2022/06/11 10:38:36;;;;;;;2.80;2.60;;;38.70;99.90;;;;;;6277096;22;20395;-86
2022/06/11 10:41:05;;;;;;;4.63;2.90;;;40.20;99.90;;;;;;6275258;22;20368;-85
2022/06/11 10:43:46;;;;;;;5.40;2.30;;;39.90;99.90;;;;;;6276697;22;20418;-86
2022/06/11 10:46:13;;;;;;;3.43;2.60;;;40.70;99.90;;;;;;6276490;22;20679;-86
2022/06/11 10:48:39;;;;;;;3.80;2.93;;;40.90;99.90;;;;;;6248800;22;20430;-87
2022/06/11 10:51:24;;;;;;;4.10;2.53;;;41.50;99.90;;;;;;6250311;22;20875;-86
2022/06/11 10:54:12;;;;;;;3.23;2.50;;;41.60;99.90;;;;;;6248914;22;20466;-86
2022/06/11 10:57:12;;;;;;;4.30;2.17;;;41.80;99.90;;;;;;6250219;22;20382;-86
2022/06/11 10:59:47;;;;;;;3.23;1.77;;;42.10;99.90;;;;;;6280342;22;20380;-87
2022/06/11 11:02:30;;;;;;;5.03;2.10;;;42.10;99.90;;;;;;6253997;22;20414;-86
2022/06/11 11:05:08;;;;;;;3.13;2.07;;;41.70;99.90;;;;;;6276360;22;20351;-86
2022/06/11 11:07:45;;;;;;;3.30;1.93;;;41.80;99.90;;;;;;6248358;22;20442;-87
2022/06/11 11:10:28;;;;;;;3.00;1.73;;;41.50;99.90;;;;;;6276845;22;20359;-86
2022/06/11 11:13:00;;;;;;;4.77;2.20;;;41.00;99.90;;;;;;6249856;22;20378;-86
2022/06/11 11:15:29;;;;;;;2.60;1.80;;;40.80;99.90;;;;;;6276769;22;20458;-85
2022/06/11 11:18:05;;;;;;;6.57;1.73;;;40.90;99.90;;;;;;6249758;22;20818;-86
2022/06/11 11:20:40;;;;;;;4.40;2.33;;;41.00;99.90;;;;;;6276802;22;20359;-86
2022/06/11 11:23:09;;;;;;;5.70;2.50;;;41.00;99.90;;;;;;6249832;22;20418;-85
2022/06/11 11:25:40;;;;;;;4.20;1.90;;;40.20;99.90;;;;;;6279870;22;20375;-85
2022/06/11 11:28:15;;;;;;;2.80;1.77;;;40.40;99.90;;;;;;6277739;22;20398;-86
2022/06/11 11:30:40;;;;;;;3.33;1.60;;;40.20;99.90;;;;;;6277080;22;20351;-85
2022/06/11 11:33:25;;;;;;;6.53;1.90;;;40.20;99.90;;;;;;6276607;22;20860;-86
2022/06/11 11:36:21;;;;;;;3.50;1.80;;;40.30;99.90;;;;;;6276228;22;20614;-85
2022/06/11 11:39:20;;;;;;;3.63;2.10;;;40.20;99.90;;;;;;6275177;22;20391;-86
2022/06/11 11:42:06;;;;;;;2.77;1.63;;;40.20;99.90;;;;;;6277719;22;20379;-86
2022/06/11 11:44:36;;;;;;;4.37;1.90;;;40.40;99.90;;;;;;6277636;22;20359;-86
2022/06/11 11:47:10;;;;;;;2.70;1.67;;;40.00;99.90;;;;;;6251015;22;20371;-86
2022/06/11 11:49:37;;;;;;;5.53;1.97;;;39.60;99.90;;;;;;6278418;22;20389;-86
2022/06/11 11:52:16;;;;;;;3.70;2.20;;;39.60;99.90;;;;;;6251597;22;20387;-86
2022/06/11 11:54:56;;;;;;;2.90;1.43;;;39.70;99.90;;;;;;6277780;22;20429;-86
2022/06/11 11:57:23;;;;;;;3.57;1.70;;;39.70;99.90;;;;;;6277938;22;20382;-86
2022/06/11 11:59:55;;;;;;;3.67;1.77;;;39.50;99.90;;;;;;6278019;22;20369;-86
2022/06/11 12:02:24;;;;;;;3.20;1.80;;;39.30;99.90;;;;;;6278178;22;20721;-84
2022/06/11 12:05:22;;;;;;;2.23;1.40;;;39.10;99.90;;;;;;6279677;22;20888;-85
2022/06/11 12:07:50;;;;;;;3.70;1.60;;;38.90;99.90;;;;;;6258671;22;20403;-86
2022/06/11 12:10:36;;;;;;;4.07;1.70;;;38.60;99.90;;;;;;6279040;22;20375;-86
2022/06/11 12:13:03;;;;;;;3.77;1.67;;;38.50;99.90;;;;;;6278340;22;20701;-86
2022/06/11 12:15:31;;;;;;;4.30;1.20;;;38.40;99.90;;;;;;6277874;22;20408;-86
2022/06/11 12:36:12;;;;;;;;;;;;;;;;;;;;;
2022/06/11 12:39:18;;;;;;;;;;;;;;;;;;;;;
2022/06/11 12:42:24;;;;;;;;;;;;;;;;;;;;;
2022/06/11 12:48:19;;;;;;;4.53;1.47;;;35.60;99.90;;;;;;6225934;22;20388;-82
2022/06/11 12:50:50;;;;;;;2.77;1.30;;;35.50;99.90;;;;;;6250472;23;20410;-81
2022/06/11 12:53:37;;;;;;;4.03;1.63;;;35.50;99.90;;;;;;6251658;22;20380;-82
2022/06/11 12:56:32;;;;;;;2.53;1.57;;;35.60;99.90;;;;;;6249781;23;20388;-81
2022/06/11 12:59:25;;;;;;;3.20;1.90;;;35.20;99.90;;;;;;6250969;22;20399;-81
2022/06/11 13:01:59;;;;;;;31.77;3.23;;;34.90;99.90;;;;;;6248909;22;20574;-80
2022/06/11 13:04:52;;;;;;;3.10;1.70;;;34.90;99.90;;;;;;6250202;22;20368;-81
2022/06/11 13:07:21;;;;;;;2.90;1.50;;;34.90;99.90;;;;;;6250372;22;20364;-81
2022/06/11 13:10:01;;;;;;;3.40;1.80;;;35.00;99.90;;;;;;6249928;22;20388;-81
2022/06/11 13:12:46;;;;;;;5.50;1.90;;;35.10;99.90;;;;;;6250777;22;20407;-82
2022/06/11 13:15:25;;;;;;;5.30;2.00;;;35.10;99.90;;;;;;6249844;23;20447;-81
2022/06/11 13:18:11;;;;;;;3.63;1.70;;;34.90;99.90;;;;;;6248916;22;20391;-80
2022/06/11 13:21:09;;;;;;;4.80;1.50;;;34.70;99.90;;;;;;6248216;23;20380;-81
2022/06/11 13:27:26;;;;;;;4.13;1.60;;;34.50;99.90;;;;;;6243584;22;20383;-81
2022/06/11 13:30:15;;;;;;;4.87;1.80;;;34.20;99.90;;;;;;6201846;22;20745;-85
2022/06/11 13:33:05;;;;;;;6.93;2.03;;;34.00;99.90;;;;;;6249351;22;20361;-83
2022/06/11 13:36:10;;;;;;;3.03;1.60;;;34.00;99.90;;;;;;6275206;22;20416;-84
2022/06/11 13:38:57;;;;;;;6.40;1.80;;;33.80;99.90;;;;;;6253624;22;20890;-84
2022/06/11 13:41:57;;;;;;;3.07;1.57;;;33.50;99.90;;;;;;6253175;22;20444;-84
2022/06/11 13:44:55;;;;;;;5.40;1.97;;;33.40;99.90;;;;;;6252724;22;20375;-83
2022/06/11 13:47:45;;;;;;;4.93;1.60;;;33.20;99.90;;;;;;6252860;22;20399;-84
2022/06/11 13:50:33;;;;;;;4.10;1.53;;;32.60;99.90;;;;;;6253254;22;20879;-83
2022/06/11 13:55:55;;;;;;;5.80;1.87;;;31.40;99.90;;;;;;6280949;22;20350;-82
2022/06/11 13:58:56;;;;;;;4.93;2.00;;;30.90;99.90;;;;;;6255064;22;20501;-84
2022/06/11 14:01:57;;;;;;;6.77;1.67;;;30.50;99.90;;;;;;6254773;22;20375;-83
2022/06/11 14:04:36;;;;;;;3.93;1.83;;;30.30;99.90;;;;;;6270266;22;20371;-83
2022/06/11 14:07:07;;;;;;;3.70;1.70;;;30.20;99.90;;;;;;6253744;22;20375;-83
2022/06/11 14:12:39;;;;;;;1.97;1.77;;;30.20;99.90;;;;;;6281573;22;21029;-84
2022/06/11 14:15:33;;;;;;;2.83;2.13;;;30.10;99.90;;;;;;6280589;22;20371;-84
2022/06/11 14:18:04;;;;;;;2.57;1.40;;;29.90;99.90;;;;;;6260846;22;20378;-83
2022/06/11 14:20:33;;;;;;;3.37;1.77;;;29.90;99.90;;;;;;6280088;22;20818;-83
2022/06/11 14:23:25;;;;;;;2.13;1.40;;;30.00;99.90;;;;;;6280072;22;20375;-84
2022/06/11 14:25:56;;;;;;;3.93;1.60;;;30.10;99.90;;;;;;6220987;22;20375;-82
2022/06/11 14:28:24;;;;;;;2.43;1.27;;;30.10;99.90;;;;;;6252475;22;20432;-84
2022/06/11 14:30:59;;;;;;;2.33;1.70;;;30.00;99.90;;;;;;6253444;22;20472;-84
2022/06/11 14:34:06;;;;;;;3.17;1.20;;;29.90;99.90;;;;;;6252443;22;20418;-83
2022/06/11 14:36:38;;;;;;;7.07;1.67;;;29.80;99.90;;;;;;6280209;22;20359;-84
2022/06/11 14:39:08;;;;;;;3.40;1.43;;;29.80;99.90;;;;;;6279803;22;20872;-83
2022/06/11 14:41:36;;;;;;;2.40;1.30;;;29.90;99.90;;;;;;6279997;22;20359;-82
2022/06/11 14:44:02;;;;;;;2.40;1.30;;;29.90;99.90;;;;;;6251312;22;20712;-83
2022/06/11 14:46:39;;;;;;;4.27;1.77;;;29.80;99.90;;;;;;6252447;22;20394;-84
2022/06/11 14:49:34;;;;;;;2.40;1.33;;;29.80;99.90;;;;;;6279006;22;20168;-84
2022/06/11 14:52:06;;;;;;;2.63;1.33;;;29.80;99.90;;;;;;6252445;22;20407;-84